Portada
METAR-TAF:

METAR-TAF

Aeropuertos :

Plasencia, Italia

latitud: 44-55N, longitud: 009-44E, altitud: 134 m

Observación

El informe se hizo hace 48 minutos, a las 11:55 UTC
Viento 2 kt del norte
Temperatura 13°C
Humedad 77%
Presión 1015 hPa
Visibilidad: 8000 m
Escasas nubes a una altura de 3000 ft

METAR: LIMS 051155Z 35002KT 8000 FEW030 13/09 Q1015 RMK SCT VIS MIN 8000 WIND THR30 35004KT BLU

Hora: 13:43 (12:43 UTC)


TAF: falta

Observaciones y pronósticos meteorológicos de más de 4000 aeropuertos (mensajes METAR y TAF).

Los puntos amarillos y rojos representan las estaciones disponibles.

Ponga el ratón en el punto deseado para ver el nombre de la estación.

Haga clic para ver las observaciones y los pronósticos meteorológicos.

Para cambiar el mapa : haga clic en los botones verdes con una cruz de color negro para hacer un zoom, en el botón verde con un guión para alejar o en las flechas verdes para mapas adyacentes.


METAR-TAF: